createdAt,value
2022-12-04T00:02:23.356Z,99898.52
2022-12-04T00:04:50.061Z,99898.77
2022-12-04T00:07:16.682Z,99895.02
2022-12-04T00:09:43.068Z,99897.61
2022-12-04T00:12:09.853Z,99893.98
2022-12-04T00:14:54.559Z,99893.77
2022-12-04T00:17:22.486Z,99894.76
2022-12-04T00:19:49.217Z,99896.20
2022-12-04T00:22:15.474Z,99896.05
2022-12-04T00:24:42.338Z,99897.60
2022-12-04T00:27:08.519Z,99897.11
2022-12-04T00:29:34.756Z,99901.20
2022-12-04T00:32:01.093Z,99899.30
2022-12-04T00:34:27.767Z,99894.21
2022-12-04T00:36:53.997Z,99891.61
2022-12-04T00:39:20.304Z,99894.77
2022-12-04T00:41:46.541Z,99899.67
2022-12-04T00:44:13.015Z,99897.48
2022-12-04T00:46:40.231Z,99900.92
2022-12-04T00:49:06.852Z,99898.74
2022-12-04T00:51:33.418Z,99897.36
2022-12-04T00:53:59.692Z,99898.20
2022-12-04T00:56:27.433Z,99896.91
2022-12-04T00:58:57.181Z,99896.42
2022-12-04T01:01:23.859Z,99897.16
2022-12-04T01:03:50.775Z,99896.05
2022-12-04T01:06:21.912Z,99896.31
2022-12-04T01:08:49.300Z,99894.81
2022-12-04T01:11:15.795Z,99897.49
2022-12-04T01:13:42.349Z,99901.38
2022-12-04T01:16:08.951Z,99901.65
2022-12-04T01:18:35.269Z,99904.80
2022-12-04T01:21:01.531Z,99901.13
2022-12-04T01:23:27.873Z,99904.41
2022-12-04T01:25:56.340Z,99905.04
2022-12-04T01:28:23.072Z,99900.43
2022-12-04T01:31:02.127Z,99897.29
2022-12-04T01:33:28.655Z,99895.67
2022-12-04T01:35:55.764Z,99887.59
2022-12-04T01:38:24.191Z,99890.84
2022-12-04T01:40:50.526Z,99891.35
2022-12-04T01:43:16.906Z,99889.06
2022-12-04T01:45:52.650Z,99885.64
2022-12-04T01:48:22.049Z,99880.63
2022-12-04T01:50:49.954Z,99883.56
2022-12-04T01:53:16.446Z,99876.89
2022-12-04T01:55:42.890Z,99882.74
2022-12-04T01:58:09.213Z,99877.74
2022-12-04T02:00:35.516Z,99881.21
2022-12-04T02:03:02.014Z,99876.61
2022-12-04T02:05:28.401Z,99880.28
2022-12-04T02:07:57.218Z,99883.09
2022-12-04T02:11:05.865Z,99880.14
2022-12-04T02:13:34.808Z,99878.13
2022-12-04T02:16:23.342Z,99878.17
2022-12-04T02:18:57.636Z,99875.89
2022-12-04T02:21:29.737Z,99867.73
2022-12-04T02:24:02.198Z,99871.15
2022-12-04T02:26:50.840Z,99868.58
2022-12-04T02:29:29.712Z,99877.20
2022-12-04T02:32:01.857Z,99872.36
2022-12-04T02:34:29.704Z,99877.40
2022-12-04T02:37:04.777Z,99876.02
2022-12-04T02:39:43.641Z,99881.20
2022-12-04T02:42:16.157Z,99874.48
2022-12-04T02:44:46.294Z,99870.94
2022-12-04T02:47:13.935Z,99874.24
2022-12-04T02:49:45.654Z,99874.10
2022-12-04T02:52:14.088Z,99874.17
2022-12-04T02:54:42.377Z,99878.71
2022-12-04T02:57:11.448Z,99876.40
2022-12-04T02:59:41.287Z,99875.14
2022-12-04T03:02:39.135Z,99878.17
2022-12-04T03:05:11.808Z,99879.41
2022-12-04T03:07:48.903Z,99878.96
2022-12-04T03:10:18.336Z,99878.83
2022-12-04T03:12:47.489Z,99875.20
2022-12-04T03:15:27.209Z,99872.05
2022-12-04T03:17:55.787Z,99870.10
2022-12-04T03:20:22.220Z,99871.89
2022-12-04T03:22:51.455Z,99872.63
2022-12-04T03:25:17.849Z,99879.28
2022-12-04T03:27:59.368Z,99873.09
2022-12-04T03:30:25.956Z,99879.30
2022-12-04T03:33:02.856Z,99882.40
2022-12-04T03:35:33.085Z,99879.31
2022-12-04T03:38:14.491Z,99873.98
2022-12-04T03:40:53.896Z,99870.67
2022-12-04T03:43:33.941Z,99873.80
2022-12-04T03:46:07.653Z,99874.85
2022-12-04T03:48:50.162Z,99872.83
2022-12-04T03:51:23.190Z,99877.27
2022-12-04T03:53:52.273Z,99875.48
2022-12-04T03:56:27.025Z,99873.98
2022-12-04T03:59:04.073Z,99875.69
2022-12-04T04:01:33.746Z,99876.27
2022-12-04T04:04:00.454Z,99879.73
2022-12-04T04:06:30.377Z,99880.14
2022-12-04T04:09:00.209Z,99886.38
2022-12-04T04:11:34.670Z,99877.67
2022-12-04T04:14:39.740Z,99877.59
2022-12-04T04:17:26.578Z,99880.48
2022-12-04T04:20:18.905Z,99873.89
2022-12-04T04:23:03.909Z,99873.98
2022-12-04T04:25:30.205Z,99869.29
2022-12-04T04:27:57.420Z,99874.21
2022-12-04T04:30:23.925Z,99869.79
2022-12-04T04:33:08.216Z,99868.90
2022-12-04T04:35:50.925Z,99870.52
2022-12-04T04:38:24.565Z,99875.07
2022-12-04T04:40:53.800Z,99877.42
2022-12-04T04:43:51.442Z,99877.52
2022-12-04T04:46:29.066Z,99877.63
2022-12-04T04:48:57.354Z,99876.84
2022-12-04T04:51:23.841Z,99869.81
2022-12-04T04:53:51.926Z,99869.44
2022-12-04T04:56:19.833Z,99872.65
2022-12-04T04:58:46.318Z,99877.95
2022-12-04T05:01:17.467Z,99875.57
2022-12-04T05:03:43.877Z,99873.93
2022-12-04T05:06:10.105Z,99871.27
2022-12-04T05:08:36.499Z,99874.84
2022-12-04T05:11:03.166Z,99873.78
2022-12-04T05:13:29.596Z,99871.03
2022-12-04T05:16:00.360Z,99872.16
2022-12-04T05:18:26.973Z,99870.98
2022-12-04T05:20:53.192Z,99868.86
2022-12-04T05:23:20.876Z,99873.90
2022-12-04T05:25:47.109Z,99873.50
2022-12-04T05:28:13.418Z,99872.70
2022-12-04T05:30:41.072Z,99870.85
2022-12-04T05:33:07.411Z,99872.74
2022-12-04T05:35:33.627Z,99874.93
2022-12-04T05:37:59.956Z,99872.00
2022-12-04T05:40:26.197Z,99870.42
2022-12-04T05:42:52.620Z,99868.27
2022-12-04T05:45:19.073Z,99863.79
2022-12-04T05:47:46.801Z,99866.56
2022-12-04T05:50:13.203Z,99866.11
2022-12-04T05:52:39.487Z,99869.69
2022-12-04T05:55:06.201Z,99870.00
2022-12-04T05:57:32.791Z,99871.21
2022-12-04T05:59:59.025Z,99872.10
2022-12-04T06:02:25.401Z,99869.30
2022-12-04T06:04:51.909Z,99876.98
2022-12-04T06:07:18.246Z,99877.30
2022-12-04T09:08:06.077Z,99914.80
2022-12-04T09:10:36.343Z,99905.73
2022-12-04T09:13:03.461Z,99908.39
2022-12-04T09:15:31.373Z,99907.67
2022-12-04T09:18:00.304Z,99902.15
2022-12-04T09:20:27.297Z,99900.65
2022-12-04T09:23:03.890Z,99896.63
2022-12-04T09:25:34.882Z,99904.57
2022-12-04T09:28:01.791Z,99907.98
2022-12-04T09:30:29.709Z,99907.08
2022-12-04T09:32:57.002Z,99910.88
2022-12-04T09:35:24.010Z,99904.17
2022-12-04T09:37:50.997Z,99898.46
2022-12-04T09:40:35.180Z,99902.95
2022-12-04T09:43:31.758Z,99900.13
2022-12-04T09:46:02.508Z,99904.14
2022-12-04T09:48:33.536Z,99899.04
2022-12-04T09:51:00.610Z,99900.97
2022-12-04T09:53:42.733Z,99896.30
2022-12-04T09:56:12.555Z,99901.36
2022-12-04T09:58:42.108Z,99896.60
2022-12-04T10:01:35.565Z,99887.63
2022-12-04T10:04:06.024Z,99884.67
2022-12-04T10:06:48.327Z,99885.02
2022-12-04T10:09:21.615Z,99885.20
2022-12-04T10:12:19.794Z,99878.39
2022-12-04T10:14:49.680Z,99873.27
2022-12-04T10:17:36.745Z,99873.24
2022-12-04T10:20:25.256Z,99881.85
2022-12-04T10:23:07.139Z,99881.86
2022-12-04T10:25:38.423Z,99877.10
2022-12-04T10:28:27.040Z,99875.48
2022-12-04T10:30:54.992Z,99871.75
2022-12-04T10:33:53.779Z,99875.59
2022-12-04T10:36:22.052Z,99871.40
2022-12-04T10:38:50.200Z,99866.45
2022-12-04T10:41:45.998Z,99870.20
2022-12-04T10:44:16.028Z,99867.86
2022-12-04T10:46:45.988Z,99866.70
2022-12-04T10:49:21.063Z,99864.06
2022-12-04T10:51:48.050Z,99863.52
2022-12-04T10:54:43.364Z,99851.71
2022-12-04T10:57:11.880Z,99846.79
2022-12-04T10:59:48.954Z,99837.63
2022-12-04T11:02:19.917Z,99843.27
2022-12-04T11:04:57.568Z,99839.77
2022-12-04T11:07:26.792Z,99840.16
2022-12-04T11:10:03.454Z,99846.71
2022-12-04T11:12:31.241Z,99846.58
2022-12-04T11:15:02.786Z,99838.48
2022-12-04T11:17:30.689Z,99840.36
2022-12-04T11:20:21.445Z,99835.27
2022-12-04T11:23:06.624Z,99835.25
2022-12-04T11:25:36.140Z,99833.59
2022-12-04T11:28:03.203Z,99833.42
2022-12-04T11:30:37.380Z,99826.23
2022-12-04T11:33:07.234Z,99823.77
2022-12-04T11:35:34.383Z,99824.87
2022-12-04T11:38:08.653Z,99821.50
2022-12-04T11:40:35.732Z,99823.75
2022-12-04T11:43:10.196Z,99818.08
2022-12-04T11:45:37.313Z,99818.77
2022-12-04T11:48:17.533Z,99821.21
2022-12-04T11:50:59.936Z,99819.17
2022-12-04T11:53:59.197Z,99821.32
2022-12-04T11:56:43.334Z,99817.79
2022-12-04T11:59:32.605Z,99814.19
2022-12-04T12:02:23.912Z,99812.33
2022-12-04T12:05:08.201Z,99803.53
2022-12-04T12:07:40.651Z,99794.45
2022-12-04T12:10:32.198Z,99789.08
2022-12-04T12:13:07.989Z,99791.34
2022-12-04T12:16:15.195Z,99790.92
2022-12-04T12:18:57.597Z,99792.77
2022-12-04T12:21:26.976Z,99799.94
2022-12-04T12:24:07.483Z,99798.50
2022-12-04T12:26:50.627Z,99795.55
2022-12-04T12:29:35.887Z,99800.31
2022-12-04T12:32:17.196Z,99803.46
2022-12-04T12:34:45.971Z,99804.59
2022-12-04T12:37:40.208Z,99798.96
2022-12-04T12:40:24.829Z,99800.95
2022-12-04T12:43:01.608Z,99797.55
2022-12-04T12:46:13.816Z,99798.05
2022-12-04T12:49:01.487Z,99801.06
2022-12-04T12:51:38.114Z,99806.34
2022-12-04T12:54:10.349Z,99805.84
2022-12-04T12:56:42.316Z,99801.47
2022-12-04T12:59:17.239Z,99792.98
2022-12-04T13:01:58.754Z,99797.17
2022-12-04T13:04:44.515Z,99790.64
2022-12-04T13:07:17.536Z,99790.02
2022-12-04T13:10:02.221Z,99783.45
2022-12-04T13:12:29.430Z,99783.30
2022-12-04T13:14:56.812Z,99778.79
2022-12-04T13:17:37.280Z,99780.45
2022-12-04T13:20:10.113Z,99782.66
2022-12-04T13:23:11.193Z,99788.40
2022-12-04T13:25:50.245Z,99787.32
2022-12-04T13:28:36.457Z,99783.95
2022-12-04T13:31:15.358Z,99788.85
2022-12-04T13:34:18.282Z,99789.30
2022-12-04T13:36:57.580Z,99788.55
2022-12-04T13:39:40.938Z,99795.61
2022-12-04T13:42:23.876Z,99798.55
2022-12-04T13:45:01.065Z,99801.39
2022-12-04T13:47:33.173Z,99803.01
2022-12-04T13:50:18.819Z,99804.05
2022-12-04T13:52:47.935Z,99806.26
2022-12-04T13:55:29.929Z,99806.20
2022-12-04T13:58:12.570Z,99804.71
2022-12-04T14:00:43.190Z,99810.13
2022-12-04T14:03:25.629Z,99808.30
2022-12-04T14:05:52.744Z,99814.63
2022-12-04T14:08:23.275Z,99823.73
2022-12-04T14:11:13.519Z,99824.11
2022-12-04T14:13:50.404Z,99822.10
2022-12-04T14:16:27.606Z,99824.00
2022-12-04T14:19:01.581Z,99821.54
2022-12-04T14:21:45.979Z,99818.64
2022-12-04T14:24:37.424Z,99821.75
2022-12-04T14:27:29.492Z,99820.30
2022-12-04T14:29:56.743Z,99812.27
2022-12-04T14:32:25.611Z,99813.89
2022-12-04T14:34:53.445Z,99811.31
2022-12-04T14:37:32.097Z,99815.67
2022-12-04T14:39:59.330Z,99815.52
2022-12-04T14:42:36.920Z,99811.85
2022-12-04T14:45:06.143Z,99811.77
2022-12-04T14:47:49.013Z,99809.39
2022-12-04T14:50:46.978Z,99804.34
2022-12-04T14:53:20.775Z,99807.48
2022-12-04T14:55:55.080Z,99804.67
2022-12-04T14:58:31.243Z,99799.63
2022-12-04T15:01:29.683Z,99800.84
2022-12-04T15:03:59.126Z,99802.75
2022-12-04T15:06:27.955Z,99802.95
2022-12-04T15:09:22.609Z,99803.71
2022-12-04T15:12:10.523Z,99804.31
2022-12-04T15:14:47.824Z,99805.39
2022-12-04T15:17:18.937Z,99802.94
2022-12-04T15:19:46.423Z,99806.33
2022-12-04T15:22:23.821Z,99801.40
2022-12-04T15:24:51.821Z,99798.95
2022-12-04T15:27:28.828Z,99792.77
2022-12-04T15:29:59.375Z,99785.89
2022-12-04T15:32:27.020Z,99782.36
2022-12-04T15:35:09.265Z,99784.98
2022-12-04T15:37:36.971Z,99790.27
2022-12-04T15:40:08.332Z,99786.70
2022-12-04T15:42:35.467Z,99787.56
2022-12-04T15:45:08.674Z,99788.38
2022-12-04T15:47:51.059Z,99785.52
2022-12-04T15:50:29.144Z,99787.55
2022-12-04T15:52:56.145Z,99784.38
2022-12-04T15:55:24.047Z,99783.70
2022-12-04T15:57:56.628Z,99782.68
2022-12-04T16:00:26.760Z,99787.48
2022-12-04T16:02:53.818Z,99790.67
2022-12-04T16:05:20.828Z,99793.52
2022-12-04T16:07:55.979Z,99792.21
2022-12-04T16:10:31.572Z,99790.27
2022-12-04T16:13:00.865Z,99789.26
2022-12-04T16:15:37.044Z,99785.77
2022-12-04T16:18:06.068Z,99789.19
2022-12-04T16:20:36.819Z,99783.90
2022-12-04T16:23:04.029Z,99789.45
2022-12-04T16:25:31.716Z,99789.59
2022-12-04T16:27:59.701Z,99792.35
2022-12-04T16:30:27.885Z,99791.91
2022-12-04T16:32:54.942Z,99792.29
2022-12-04T16:35:21.919Z,99793.53
2022-12-04T16:37:48.890Z,99800.77
2022-12-04T16:40:15.929Z,99800.46
2022-12-04T16:42:42.995Z,99798.58
2022-12-04T16:45:31.202Z,99796.61
2022-12-04T16:47:58.559Z,99796.66
2022-12-04T16:50:26.116Z,99801.36
2022-12-04T16:52:53.354Z,99803.19
2022-12-04T16:55:32.890Z,99795.33
2022-12-04T16:58:00.278Z,99795.13
2022-12-04T17:00:27.470Z,99789.20
2022-12-04T17:02:54.523Z,99780.74
2022-12-04T17:05:23.664Z,99780.90
2022-12-04T17:07:50.742Z,99775.52
2022-12-04T17:10:23.449Z,99778.17
2022-12-04T17:12:54.699Z,99784.95
2022-12-04T17:15:21.893Z,99784.31
2022-12-04T17:17:48.847Z,99785.52
2022-12-04T17:20:17.203Z,99787.05
2022-12-04T17:22:44.551Z,99783.41
2022-12-04T17:25:12.207Z,99788.09
2022-12-04T17:27:39.406Z,99792.44
2022-12-04T17:30:09.279Z,99792.78
2022-12-04T17:32:36.664Z,99792.45
2022-12-04T17:35:05.326Z,99794.14
2022-12-04T17:37:33.241Z,99794.02
2022-12-04T17:40:00.409Z,99792.91
2022-12-04T17:42:27.546Z,99790.77
2022-12-04T17:44:54.860Z,99787.85
2022-12-04T17:47:22.065Z,99787.61
2022-12-04T17:49:49.129Z,99787.75
2022-12-04T17:52:16.365Z,99788.58
2022-12-04T17:54:43.395Z,99788.83
2022-12-04T17:57:10.388Z,99786.46
2022-12-04T17:59:37.527Z,99784.05
2022-12-04T18:02:04.656Z,99787.94
2022-12-04T18:04:31.714Z,99792.30
2022-12-04T18:06:59.559Z,99792.33
2022-12-04T18:09:26.891Z,99794.98
2022-12-04T18:11:53.890Z,99790.73
2022-12-04T18:14:24.317Z,99791.21
2022-12-04T18:16:53.366Z,99783.79
2022-12-04T18:19:21.978Z,99783.39
2022-12-04T18:21:49.007Z,99788.05
2022-12-04T18:24:16.234Z,99788.96
2022-12-04T18:26:44.963Z,99780.19
2022-12-04T18:29:14.572Z,99783.64
2022-12-04T18:31:41.663Z,99789.50
2022-12-04T18:34:08.916Z,99786.85
2022-12-04T18:36:37.550Z,99789.33
2022-12-04T18:39:07.215Z,99793.24
2022-12-04T18:41:34.584Z,99789.09
2022-12-04T18:44:03.105Z,99794.64
2022-12-04T18:46:30.623Z,99795.34
2022-12-04T18:49:01.303Z,99798.27
2022-12-04T18:51:33.067Z,99793.40
2022-12-04T18:54:03.871Z,99793.60
2022-12-04T18:56:31.428Z,99791.98
2022-12-04T18:59:00.646Z,99792.70
2022-12-04T19:01:28.826Z,99795.46
2022-12-04T19:03:59.740Z,99798.14
2022-12-04T19:06:29.844Z,99801.70
2022-12-04T19:08:58.873Z,99792.23
2022-12-04T19:11:25.934Z,99789.43
2022-12-04T19:13:53.033Z,99787.42
2022-12-04T19:16:21.490Z,99782.50
2022-12-04T19:18:49.102Z,99780.28
2022-12-04T19:21:18.306Z,99772.88
2022-12-04T19:24:03.800Z,99780.72
2022-12-04T19:26:33.138Z,99779.91
2022-12-04T19:29:01.025Z,99776.44
2022-12-04T19:31:29.870Z,99778.45
2022-12-04T19:33:57.828Z,99773.80
2022-12-04T19:36:26.883Z,99772.27
2022-12-04T19:38:54.508Z,99782.27
2022-12-04T19:41:22.858Z,99781.89
2022-12-04T19:43:51.286Z,99787.23
2022-12-04T19:46:20.924Z,99788.31
2022-12-04T19:48:50.111Z,99784.60
2022-12-04T19:51:18.726Z,99782.12
2022-12-04T19:53:45.808Z,99782.88
2022-12-04T19:56:24.348Z,99781.77
2022-12-04T19:58:52.521Z,99787.45
2022-12-04T20:01:20.705Z,99782.81
2022-12-04T20:03:48.278Z,99781.11
2022-12-04T20:06:16.862Z,99785.44
2022-12-04T20:08:45.885Z,99786.77
2022-12-04T20:11:17.589Z,99788.55
2022-12-04T20:13:46.499Z,99785.43
2022-12-04T20:16:15.245Z,99784.27
2022-12-04T20:18:45.395Z,99787.52
2022-12-04T20:21:12.984Z,99783.66
2022-12-04T20:23:46.465Z,99785.77
2022-12-04T20:26:14.005Z,99780.71
2022-12-04T20:28:41.187Z,99781.47
2022-12-04T20:31:19.799Z,99781.71
2022-12-04T20:33:47.772Z,99782.38
2022-12-04T20:36:15.781Z,99781.05
2022-12-04T20:38:43.082Z,99778.68
2022-12-04T20:41:13.419Z,99775.10
2022-12-04T20:43:40.642Z,99769.60
2022-12-04T20:46:35.781Z,99768.16
2022-12-04T20:49:05.803Z,99761.79
2022-12-04T20:51:37.498Z,99759.66
2022-12-04T20:54:05.200Z,99760.08
2022-12-04T20:56:34.413Z,99762.02
2022-12-04T20:59:05.624Z,99761.38
2022-12-04T21:01:34.811Z,99761.05
2022-12-04T21:04:01.912Z,99760.35
2022-12-04T21:06:35.076Z,99759.83
2022-12-04T21:09:06.683Z,99764.09
2022-12-04T21:11:44.631Z,99754.47
2022-12-04T21:14:36.119Z,99754.03
2022-12-04T21:17:04.035Z,99751.84
2022-12-04T21:19:32.208Z,99754.36
2022-12-04T21:21:59.183Z,99744.11
2022-12-04T21:24:26.781Z,99747.13
2022-12-04T21:26:54.622Z,99740.67
2022-12-04T21:29:21.925Z,99737.79
2022-12-04T21:31:48.995Z,99739.94
2022-12-04T21:34:16.967Z,99738.95
2022-12-04T21:36:44.524Z,99743.30
2022-12-04T21:39:11.513Z,99745.23
2022-12-04T21:41:57.098Z,99744.10
2022-12-04T21:44:24.376Z,99750.79
2022-12-04T21:46:51.669Z,99744.06
2022-12-04T21:49:19.207Z,99750.88
2022-12-04T21:51:57.200Z,99742.80
2022-12-04T21:54:25.849Z,99743.90
2022-12-04T21:56:52.876Z,99743.77
2022-12-04T21:59:19.791Z,99742.25
2022-12-04T22:01:46.853Z,99743.23
2022-12-04T22:04:13.920Z,99741.85
2022-12-04T22:06:41.440Z,99739.81
2022-12-04T22:09:09.330Z,99732.77
2022-12-04T22:11:36.376Z,99730.63
2022-12-04T22:14:03.858Z,99730.39
2022-12-04T22:16:32.845Z,99729.60
2022-12-04T22:19:01.733Z,99728.45
2022-12-04T22:21:28.945Z,99725.91
2022-12-04T22:23:57.091Z,99729.17
2022-12-04T22:26:24.607Z,99729.36
2022-12-04T22:28:52.082Z,99723.39
2022-12-04T22:31:20.090Z,99723.46
2022-12-04T22:33:48.277Z,99725.77
2022-12-04T22:36:17.101Z,99725.13
2022-12-04T22:39:07.758Z,99728.34
2022-12-04T22:41:31.627Z,99727.51
2022-12-04T22:43:58.644Z,99725.29
2022-12-04T22:46:26.071Z,99720.77
2022-12-04T22:48:53.392Z,99721.49
2022-12-04T22:51:22.320Z,99720.23
2022-12-04T22:53:54.785Z,99717.45
2022-12-04T22:56:27.029Z,99715.94
2022-12-04T22:58:54.110Z,99716.13
2022-12-04T23:01:25.228Z,99711.29
2022-12-04T23:03:52.862Z,99709.77
2022-12-04T23:06:20.833Z,99710.39
2022-12-04T23:08:47.927Z,99709.36
2022-12-04T23:11:19.292Z,99709.47
2022-12-04T23:13:57.838Z,99702.02
2022-12-04T23:16:25.125Z,99700.11
2022-12-04T23:18:52.502Z,99704.98
2022-12-04T23:21:20.203Z,99704.24
2022-12-04T23:23:47.452Z,99705.16
2022-12-04T23:26:16.733Z,99700.16
2022-12-04T23:28:43.953Z,99701.67
2022-12-04T23:31:11.178Z,99699.65
2022-12-04T23:33:39.437Z,99697.99
2022-12-04T23:36:07.019Z,99697.02
2022-12-04T23:38:35.005Z,99699.15
2022-12-04T23:41:07.488Z,99698.03
2022-12-04T23:43:34.641Z,99697.95
2022-12-04T23:46:04.585Z,99693.27
2022-12-04T23:48:36.087Z,99699.59
2022-12-04T23:51:03.550Z,99691.55
2022-12-04T23:53:31.025Z,99696.20
2022-12-04T23:56:15.783Z,99697.45
2022-12-04T23:58:43.349Z,99693.49
